createdAt,value
2022-08-12T00:06:58.346Z,19.1
2022-08-12T00:37:06.368Z,18.6
2022-08-12T02:27:10.859Z,17.3
2022-08-12T02:37:11.073Z,17.2
2022-08-12T03:17:12.817Z,17
2022-08-12T03:47:14.366Z,16.8
2022-08-12T03:57:15.225Z,16.7
2022-08-12T04:17:16.133Z,16.6
2022-08-12T04:37:16.869Z,16.7
2022-08-12T04:47:17.460Z,16.9
2022-08-12T04:57:17.851Z,17
2022-08-12T05:07:18.465Z,17.2
2022-08-12T05:17:19.175Z,17.5
2022-08-12T05:37:19.917Z,18.1
2022-08-12T05:47:20.725Z,18.4
2022-08-12T05:57:21.565Z,18.8
2022-08-12T06:27:22.397Z,20.2
2022-08-12T06:37:22.850Z,20.8
2022-08-12T06:57:57.949Z,21.7
2022-08-12T07:17:24.403Z,22.8
2022-08-12T07:57:25.930Z,24.9
2022-08-12T08:07:26.213Z,25
2022-08-12T08:17:34.165Z,25.4
2022-08-12T08:27:28.085Z,26
2022-08-12T08:37:32.937Z,26.5
2022-08-12T08:47:36.030Z,26.6
2022-08-12T08:57:42.773Z,27.1
2022-08-12T09:17:41.981Z,27.8
2022-08-12T09:27:58.111Z,28
2022-08-12T09:37:52.949Z,28.8
2022-08-12T09:47:33.506Z,28.9
2022-08-12T09:58:08.449Z,30
2022-08-12T10:07:39.548Z,29.5
2022-08-12T10:17:32.705Z,29.6
2022-08-12T10:27:39.202Z,30
2022-08-12T10:38:36.848Z,29.5
2022-08-12T10:48:01.361Z,30.3
2022-08-12T10:58:14.012Z,29.8
2022-08-12T11:08:35.432Z,30.1
2022-08-12T11:17:44.189Z,30.7
2022-08-12T11:27:36.434Z,30.3
2022-08-12T11:37:37.868Z,29.9
2022-08-12T11:47:40.344Z,30.5
2022-08-12T11:58:01.373Z,30.6
2022-08-12T12:08:40.284Z,30.5
2022-08-12T12:17:38.928Z,30.8
2022-08-12T12:28:03.934Z,30.5
2022-08-12T12:38:04.816Z,30.7
2022-08-12T12:47:40.642Z,31.1
2022-08-12T12:57:59.614Z,31.6
2022-08-12T13:07:49.172Z,30.8
2022-08-12T13:18:02.693Z,30.9
2022-08-12T13:27:42.523Z,31
2022-08-12T13:37:43.721Z,30.5
2022-08-12T13:47:43.606Z,30.5
2022-08-12T13:57:46.825Z,30.5
2022-08-12T14:07:46.056Z,30.5
2022-08-12T14:37:54.791Z,30.2
2022-08-12T15:17:52.554Z,30.3
2022-08-12T15:28:11.197Z,30.2
2022-08-12T15:37:59.085Z,30.3
2022-08-12T15:47:51.787Z,30.5
2022-08-12T16:07:53.010Z,30.3
2022-08-12T16:18:09.157Z,30.3
2022-08-12T16:27:54.869Z,30.8
2022-08-12T16:38:24.671Z,30.7
2022-08-12T16:47:57.998Z,30.5
2022-08-12T16:57:56.490Z,29.8
2022-08-12T17:07:56.331Z,29.7
2022-08-12T17:18:15.080Z,29.5
2022-08-12T17:37:58.188Z,29.3
2022-08-12T17:48:02.080Z,29.1
2022-08-12T17:58:00.165Z,29
2022-08-12T18:38:01.443Z,28
2022-08-12T18:48:01.510Z,27.7
2022-08-12T18:58:06.271Z,27.3
2022-08-12T19:08:02.406Z,26.8
2022-08-12T19:18:02.909Z,26.4
2022-08-12T19:38:06.828Z,25.7
2022-08-12T19:48:06.885Z,25.4
2022-08-12T19:58:04.714Z,25.2
2022-08-12T20:18:05.601Z,24.6
2022-08-12T20:38:26.276Z,24.2
2022-08-12T20:48:07.164Z,23.9
2022-08-12T20:58:08.078Z,23.5
2022-08-12T21:08:08.193Z,23.2
2022-08-12T21:18:09.897Z,22.9
2022-08-12T21:38:10.017Z,22.3
2022-08-12T21:48:11.842Z,22.4
2022-08-12T21:58:10.906Z,22.4
2022-08-12T22:08:11.477Z,22.4
2022-08-12T22:18:19.484Z,22.4
2022-08-12T22:28:13.187Z,22.3
2022-08-12T22:38:20.600Z,22.3
2022-08-12T22:58:14.173Z,21.7
2022-08-12T23:08:17.707Z,21
2022-08-12T23:18:29.936Z,20.7
2022-08-12T23:28:29.656Z,20.6
2022-08-12T23:38:30.454Z,20.6
2022-08-12T23:48:18.057Z,20.5
2022-08-12T23:58:31.463Z,20.5
